Anchorville, Michigan
Current Conditions -  °F | °C
As of 4:34 AM on Friday 31 Oct 2014 (Local Time) from KMTC Reporting Station
Overcast Overcast  
Wind Chill: 42°   Ceiling: 4100
Heat Index: 45°   Visibility: 10mi
Dew Point: 37°   Wind: 5mph
Humidity: 76%   Direction: 230°SW
Pressure: 29.91"   Gusts: NA
Location:  42.69°N, 82.7°W
Report Text: KMTC 310834Z AUTO 23004KT 10SM BKN041 OVC049 07/03 A2991 RMK AO2
Loading
Personal Weather Stations






























Interactive Weather Map New forecast layout! Learn more

10-Day Weather Forecast

Advertisements
Track Severe Weather on mobile